sensor_id;sensor_type;location;lat;lon;timestamp;temperature;humidity
22450;DHT22;11392;57.390;-2.468;2022-07-15T00:00:53;13.70;99.90
22450;DHT22;11392;57.390;-2.468;2022-07-15T00:03:20;13.70;99.90
22450;DHT22;11392;57.390;-2.468;2022-07-15T00:05:47;13.70;99.90
22450;DHT22;11392;57.390;-2.468;2022-07-15T00:08:14;13.60;99.90
22450;DHT22;11392;57.390;-2.468;2022-07-15T00:10:41;13.60;99.90
22450;DHT22;11392;57.390;-2.468;2022-07-15T00:13:08;13.50;99.90
22450;DHT22;11392;57.390;-2.468;2022-07-15T00:15:35;13.50;99.90
22450;DHT22;11392;57.390;-2.468;2022-07-15T00:18:02;13.50;99.90
22450;DHT22;11392;57.390;-2.468;2022-07-15T00:20:31;13.50;99.90
22450;DHT22;11392;57.390;-2.468;2022-07-15T00:23:02;13.30;99.90
22450;DHT22;11392;57.390;-2.468;2022-07-15T00:25:30;13.30;99.90
22450;DHT22;11392;57.390;-2.468;2022-07-15T00:28:02;13.20;99.90
22450;DHT22;11392;57.390;-2.468;2022-07-15T00:30:34;13.30;99.90
22450;DHT22;11392;57.390;-2.468;2022-07-15T00:33:02;13.30;99.90
22450;DHT22;11392;57.390;-2.468;2022-07-15T00:35:30;13.30;99.90
22450;DHT22;11392;57.390;-2.468;2022-07-15T00:37:58;13.40;99.90
22450;DHT22;11392;57.390;-2.468;2022-07-15T00:40:25;13.40;99.90
22450;DHT22;11392;57.390;-2.468;2022-07-15T00:42:52;13.40;99.90
22450;DHT22;11392;57.390;-2.468;2022-07-15T00:45:23;13.50;99.90
22450;DHT22;11392;57.390;-2.468;2022-07-15T00:47:53;13.50;99.90
22450;DHT22;11392;57.390;-2.468;2022-07-15T00:50:22;13.50;99.90
22450;DHT22;11392;57.390;-2.468;2022-07-15T00:53:26;13.50;99.90
22450;DHT22;11392;57.390;-2.468;2022-07-15T00:55:58;13.60;99.90
22450;DHT22;11392;57.390;-2.468;2022-07-15T00:58:27;13.50;99.90
22450;DHT22;11392;57.390;-2.468;2022-07-15T01:00:57;13.50;99.90
22450;DHT22;11392;57.390;-2.468;2022-07-15T01:03:26;13.50;99.90
22450;DHT22;11392;57.390;-2.468;2022-07-15T01:05:54;13.50;99.90
22450;DHT22;11392;57.390;-2.468;2022-07-15T01:08:21;13.50;99.90
22450;DHT22;11392;57.390;-2.468;2022-07-15T01:10:49;13.60;99.90
22450;DHT22;11392;57.390;-2.468;2022-07-15T01:13:17;13.50;99.90
22450;DHT22;11392;57.390;-2.468;2022-07-15T01:15:45;13.50;99.90
22450;DHT22;11392;57.390;-2.468;2022-07-15T01:18:12;13.60;99.90
22450;DHT22;11392;57.390;-2.468;2022-07-15T01:20:41;13.70;99.90
22450;DHT22;11392;57.390;-2.468;2022-07-15T01:23:08;13.70;99.90
22450;DHT22;11392;57.390;-2.468;2022-07-15T01:25:35;13.70;99.90
22450;DHT22;11392;57.390;-2.468;2022-07-15T01:28:02;13.70;99.90
22450;DHT22;11392;57.390;-2.468;2022-07-15T01:30:30;13.70;99.90
22450;DHT22;11392;57.390;-2.468;2022-07-15T01:32:57;13.70;99.90
22450;DHT22;11392;57.390;-2.468;2022-07-15T01:35:24;13.60;99.90
22450;DHT22;11392;57.390;-2.468;2022-07-15T01:37:51;13.70;99.90
22450;DHT22;11392;57.390;-2.468;2022-07-15T01:40:18;13.70;99.90
22450;DHT22;11392;57.390;-2.468;2022-07-15T01:42:45;13.60;99.90
22450;DHT22;11392;57.390;-2.468;2022-07-15T01:45:12;13.60;99.90
22450;DHT22;11392;57.390;-2.468;2022-07-15T01:47:47;13.60;99.90
22450;DHT22;11392;57.390;-2.468;2022-07-15T01:50:15;13.50;99.90
22450;DHT22;11392;57.390;-2.468;2022-07-15T01:52:42;13.40;99.90
22450;DHT22;11392;57.390;-2.468;2022-07-15T01:55:09;13.40;99.90
22450;DHT22;11392;57.390;-2.468;2022-07-15T01:57:38;13.40;99.90
22450;DHT22;11392;57.390;-2.468;2022-07-15T02:00:06;13.30;99.90
22450;DHT22;11392;57.390;-2.468;2022-07-15T02:02:33;13.30;99.90
22450;DHT22;11392;57.390;-2.468;2022-07-15T02:05:01;13.20;99.90
22450;DHT22;11392;57.390;-2.468;2022-07-15T02:07:27;13.20;99.90
22450;DHT22;11392;57.390;-2.468;2022-07-15T02:09:54;13.30;99.90
22450;DHT22;11392;57.390;-2.468;2022-07-15T02:12:21;13.20;99.90
22450;DHT22;11392;57.390;-2.468;2022-07-15T02:14:48;13.20;99.90
22450;DHT22;11392;57.390;-2.468;2022-07-15T02:17:15;13.20;99.90
22450;DHT22;11392;57.390;-2.468;2022-07-15T02:19:42;13.20;99.90
22450;DHT22;11392;57.390;-2.468;2022-07-15T02:22:09;13.30;99.90
22450;DHT22;11392;57.390;-2.468;2022-07-15T02:24:36;13.30;99.90
22450;DHT22;11392;57.390;-2.468;2022-07-15T02:27:03;13.40;99.90
22450;DHT22;11392;57.390;-2.468;2022-07-15T02:29:31;13.40;99.90
22450;DHT22;11392;57.390;-2.468;2022-07-15T02:31:58;13.30;99.90
22450;DHT22;11392;57.390;-2.468;2022-07-15T02:34:25;13.20;99.90
22450;DHT22;11392;57.390;-2.468;2022-07-15T02:36:52;13.30;99.90
22450;DHT22;11392;57.390;-2.468;2022-07-15T02:39:19;13.40;99.90
22450;DHT22;11392;57.390;-2.468;2022-07-15T02:41:46;13.40;99.90
22450;DHT22;11392;57.390;-2.468;2022-07-15T02:44:14;13.40;99.90
22450;DHT22;11392;57.390;-2.468;2022-07-15T02:46:41;13.40;99.90
22450;DHT22;11392;57.390;-2.468;2022-07-15T02:49:09;13.40;99.90
22450;DHT22;11392;57.390;-2.468;2022-07-15T02:51:38;13.40;99.90
22450;DHT22;11392;57.390;-2.468;2022-07-15T02:54:05;13.40;99.90
22450;DHT22;11392;57.390;-2.468;2022-07-15T02:56:31;13.40;99.90
22450;DHT22;11392;57.390;-2.468;2022-07-15T02:58:58;13.40;99.90
22450;DHT22;11392;57.390;-2.468;2022-07-15T03:01:25;13.50;99.90
22450;DHT22;11392;57.390;-2.468;2022-07-15T03:03:52;13.50;99.90
22450;DHT22;11392;57.390;-2.468;2022-07-15T03:06:20;13.50;99.90
22450;DHT22;11392;57.390;-2.468;2022-07-15T03:08:48;13.60;99.90
22450;DHT22;11392;57.390;-2.468;2022-07-15T03:11:15;13.60;99.90
22450;DHT22;11392;57.390;-2.468;2022-07-15T03:13:42;13.60;99.90
22450;DHT22;11392;57.390;-2.468;2022-07-15T03:16:09;13.60;99.90
22450;DHT22;11392;57.390;-2.468;2022-07-15T03:18:36;13.60;99.90
22450;DHT22;11392;57.390;-2.468;2022-07-15T03:21:03;13.50;99.90
22450;DHT22;11392;57.390;-2.468;2022-07-15T03:23:30;13.50;99.90
22450;DHT22;11392;57.390;-2.468;2022-07-15T03:25:57;13.50;99.90
22450;DHT22;11392;57.390;-2.468;2022-07-15T03:28:24;13.50;99.90
22450;DHT22;11392;57.390;-2.468;2022-07-15T03:30:51;13.40;99.90
22450;DHT22;11392;57.390;-2.468;2022-07-15T03:33:18;13.40;99.90
22450;DHT22;11392;57.390;-2.468;2022-07-15T03:35:45;13.40;99.90
22450;DHT22;11392;57.390;-2.468;2022-07-15T03:38:12;13.30;99.90
22450;DHT22;11392;57.390;-2.468;2022-07-15T03:40:39;13.20;99.90
22450;DHT22;11392;57.390;-2.468;2022-07-15T03:43:06;13.20;99.90
22450;DHT22;11392;57.390;-2.468;2022-07-15T03:45:33;13.30;99.90
22450;DHT22;11392;57.390;-2.468;2022-07-15T03:48:00;13.30;99.90
22450;DHT22;11392;57.390;-2.468;2022-07-15T03:50:28;13.30;99.90
22450;DHT22;11392;57.390;-2.468;2022-07-15T03:52:54;13.20;99.90
22450;DHT22;11392;57.390;-2.468;2022-07-15T03:55:21;13.20;99.90
22450;DHT22;11392;57.390;-2.468;2022-07-15T03:57:48;13.10;99.90
22450;DHT22;11392;57.390;-2.468;2022-07-15T04:00:15;13.10;99.90
22450;DHT22;11392;57.390;-2.468;2022-07-15T04:02:43;13.10;99.90
22450;DHT22;11392;57.390;-2.468;2022-07-15T04:05:14;13.10;99.90
22450;DHT22;11392;57.390;-2.468;2022-07-15T04:07:41;13.10;99.90
22450;DHT22;11392;57.390;-2.468;2022-07-15T04:10:08;13.20;99.90
22450;DHT22;11392;57.390;-2.468;2022-07-15T04:12:35;13.20;99.90
22450;DHT22;11392;57.390;-2.468;2022-07-15T04:15:10;13.20;99.90
22450;DHT22;11392;57.390;-2.468;2022-07-15T04:17:37;13.20;99.90
22450;DHT22;11392;57.390;-2.468;2022-07-15T04:20:04;13.10;99.90
22450;DHT22;11392;57.390;-2.468;2022-07-15T04:22:39;13.10;99.90
22450;DHT22;11392;57.390;-2.468;2022-07-15T04:25:11;13.10;99.90
22450;DHT22;11392;57.390;-2.468;2022-07-15T04:27:38;13.10;99.90
22450;DHT22;11392;57.390;-2.468;2022-07-15T04:30:05;13.10;99.90
22450;DHT22;11392;57.390;-2.468;2022-07-15T04:32:33;13.20;99.90
22450;DHT22;11392;57.390;-2.468;2022-07-15T04:35:00;13.30;99.90
22450;DHT22;11392;57.390;-2.468;2022-07-15T04:37:28;13.30;99.90
22450;DHT22;11392;57.390;-2.468;2022-07-15T04:39:56;13.40;99.90
22450;DHT22;11392;57.390;-2.468;2022-07-15T04:42:23;13.40;99.90
22450;DHT22;11392;57.390;-2.468;2022-07-15T04:44:51;13.40;99.90
22450;DHT22;11392;57.390;-2.468;2022-07-15T04:47:18;13.40;99.90
22450;DHT22;11392;57.390;-2.468;2022-07-15T04:49:45;13.40;99.90
22450;DHT22;11392;57.390;-2.468;2022-07-15T04:52:31;13.40;99.90
22450;DHT22;11392;57.390;-2.468;2022-07-15T04:54:58;13.50;99.90
22450;DHT22;11392;57.390;-2.468;2022-07-15T04:57:25;13.50;99.90
22450;DHT22;11392;57.390;-2.468;2022-07-15T04:59:52;13.60;99.90
22450;DHT22;11392;57.390;-2.468;2022-07-15T05:02:19;13.60;99.90
22450;DHT22;11392;57.390;-2.468;2022-07-15T05:04:46;13.70;99.90
22450;DHT22;11392;57.390;-2.468;2022-07-15T05:07:14;13.60;99.90
22450;DHT22;11392;57.390;-2.468;2022-07-15T05:09:40;13.60;99.90
22450;DHT22;11392;57.390;-2.468;2022-07-15T05:12:07;13.60;99.90
22450;DHT22;11392;57.390;-2.468;2022-07-15T05:14:34;13.50;99.90
22450;DHT22;11392;57.390;-2.468;2022-07-15T05:17:01;13.60;99.90
22450;DHT22;11392;57.390;-2.468;2022-07-15T05:19:28;13.60;99.90
22450;DHT22;11392;57.390;-2.468;2022-07-15T05:21:55;13.70;99.90
22450;DHT22;11392;57.390;-2.468;2022-07-15T05:24:22;13.70;99.90
22450;DHT22;11392;57.390;-2.468;2022-07-15T05:26:55;13.60;99.90
22450;DHT22;11392;57.390;-2.468;2022-07-15T05:29:22;13.60;99.90
22450;DHT22;11392;57.390;-2.468;2022-07-15T05:31:49;13.60;99.90
22450;DHT22;11392;57.390;-2.468;2022-07-15T05:34:16;13.60;99.90
22450;DHT22;11392;57.390;-2.468;2022-07-15T05:36:44;13.60;99.90
22450;DHT22;11392;57.390;-2.468;2022-07-15T05:39:11;13.70;99.90
22450;DHT22;11392;57.390;-2.468;2022-07-15T05:41:38;13.70;99.90
22450;DHT22;11392;57.390;-2.468;2022-07-15T05:44:13;13.80;99.90
22450;DHT22;11392;57.390;-2.468;2022-07-15T05:46:40;13.80;99.90
22450;DHT22;11392;57.390;-2.468;2022-07-15T05:49:07;13.90;99.90
22450;DHT22;11392;57.390;-2.468;2022-07-15T05:51:34;14.00;99.90
22450;DHT22;11392;57.390;-2.468;2022-07-15T05:54:01;14.10;99.90
22450;DHT22;11392;57.390;-2.468;2022-07-15T05:56:29;14.20;99.90
22450;DHT22;11392;57.390;-2.468;2022-07-15T05:58:56;14.20;99.90
22450;DHT22;11392;57.390;-2.468;2022-07-15T06:01:23;14.20;99.90
22450;DHT22;11392;57.390;-2.468;2022-07-15T06:03:50;14.30;99.90
22450;DHT22;11392;57.390;-2.468;2022-07-15T06:06:18;14.30;99.90
22450;DHT22;11392;57.390;-2.468;2022-07-15T06:08:45;14.20;99.90
22450;DHT22;11392;57.390;-2.468;2022-07-15T06:11:12;14.30;99.90
22450;DHT22;11392;57.390;-2.468;2022-07-15T06:13:39;14.30;99.90
22450;DHT22;11392;57.390;-2.468;2022-07-15T06:16:07;14.40;99.90
22450;DHT22;11392;57.390;-2.468;2022-07-15T06:18:34;14.40;99.90
22450;DHT22;11392;57.390;-2.468;2022-07-15T06:21:01;14.40;99.90
22450;DHT22;11392;57.390;-2.468;2022-07-15T06:23:28;14.50;99.90
22450;DHT22;11392;57.390;-2.468;2022-07-15T06:25:56;14.50;99.90
22450;DHT22;11392;57.390;-2.468;2022-07-15T06:28:23;14.70;99.90
22450;DHT22;11392;57.390;-2.468;2022-07-15T06:30:50;14.70;99.90
22450;DHT22;11392;57.390;-2.468;2022-07-15T06:33:17;14.70;99.90
22450;DHT22;11392;57.390;-2.468;2022-07-15T06:35:44;14.80;99.90
22450;DHT22;11392;57.390;-2.468;2022-07-15T06:38:12;14.90;99.90
22450;DHT22;11392;57.390;-2.468;2022-07-15T06:40:39;14.90;99.90
22450;DHT22;11392;57.390;-2.468;2022-07-15T06:43:06;14.90;99.90
22450;DHT22;11392;57.390;-2.468;2022-07-15T06:45:33;14.90;99.90
22450;DHT22;11392;57.390;-2.468;2022-07-15T06:48:00;14.80;99.90
22450;DHT22;11392;57.390;-2.468;2022-07-15T06:50:27;14.90;99.90
22450;DHT22;11392;57.390;-2.468;2022-07-15T06:52:54;14.90;99.90
22450;DHT22;11392;57.390;-2.468;2022-07-15T06:55:21;14.90;99.90
22450;DHT22;11392;57.390;-2.468;2022-07-15T06:57:48;14.80;99.90
22450;DHT22;11392;57.390;-2.468;2022-07-15T07:00:15;14.80;99.90
22450;DHT22;11392;57.390;-2.468;2022-07-15T07:02:43;14.80;99.90
22450;DHT22;11392;57.390;-2.468;2022-07-15T07:05:14;14.80;99.90
22450;DHT22;11392;57.390;-2.468;2022-07-15T07:07:42;14.80;99.90
22450;DHT22;11392;57.390;-2.468;2022-07-15T07:10:09;14.90;99.90
22450;DHT22;11392;57.390;-2.468;2022-07-15T07:12:36;14.90;99.90
22450;DHT22;11392;57.390;-2.468;2022-07-15T07:15:04;14.80;99.90
22450;DHT22;11392;57.390;-2.468;2022-07-15T07:17:33;14.80;99.90
22450;DHT22;11392;57.390;-2.468;2022-07-15T07:20:00;14.70;99.90
22450;DHT22;11392;57.390;-2.468;2022-07-15T07:22:27;14.70;99.90
22450;DHT22;11392;57.390;-2.468;2022-07-15T07:24:54;14.70;99.90
22450;DHT22;11392;57.390;-2.468;2022-07-15T07:27:21;14.70;99.90
22450;DHT22;11392;57.390;-2.468;2022-07-15T07:29:48;14.80;99.90
22450;DHT22;11392;57.390;-2.468;2022-07-15T07:32:15;14.70;99.90
22450;DHT22;11392;57.390;-2.468;2022-07-15T07:34:42;14.70;99.90
22450;DHT22;11392;57.390;-2.468;2022-07-15T07:37:09;14.70;99.90
22450;DHT22;11392;57.390;-2.468;2022-07-15T07:39:36;14.70;99.90
22450;DHT22;11392;57.390;-2.468;2022-07-15T07:42:03;14.70;99.90
22450;DHT22;11392;57.390;-2.468;2022-07-15T07:44:30;14.70;99.90
22450;DHT22;11392;57.390;-2.468;2022-07-15T07:46:57;14.70;99.90
22450;DHT22;11392;57.390;-2.468;2022-07-15T07:49:24;14.70;99.90
22450;DHT22;11392;57.390;-2.468;2022-07-15T07:52:02;14.70;99.90
22450;DHT22;11392;57.390;-2.468;2022-07-15T07:54:30;14.70;99.90
22450;DHT22;11392;57.390;-2.468;2022-07-15T07:56:57;14.70;99.90
22450;DHT22;11392;57.390;-2.468;2022-07-15T07:59:24;14.70;99.90
22450;DHT22;11392;57.390;-2.468;2022-07-15T08:01:51;14.70;99.90
22450;DHT22;11392;57.390;-2.468;2022-07-15T08:04:18;14.70;99.90
22450;DHT22;11392;57.390;-2.468;2022-07-15T08:06:45;14.70;99.90
22450;DHT22;11392;57.390;-2.468;2022-07-15T08:09:12;14.70;99.90
22450;DHT22;11392;57.390;-2.468;2022-07-15T08:11:39;14.70;99.90
22450;DHT22;11392;57.390;-2.468;2022-07-15T08:14:07;14.80;99.90
22450;DHT22;11392;57.390;-2.468;2022-07-15T08:16:35;14.80;99.90
22450;DHT22;11392;57.390;-2.468;2022-07-15T08:19:02;14.80;99.90
22450;DHT22;11392;57.390;-2.468;2022-07-15T08:21:29;14.90;99.90
22450;DHT22;11392;57.390;-2.468;2022-07-15T08:23:56;15.00;99.90
22450;DHT22;11392;57.390;-2.468;2022-07-15T08:26:23;15.00;99.90
22450;DHT22;11392;57.390;-2.468;2022-07-15T08:28:51;15.10;99.90
22450;DHT22;11392;57.390;-2.468;2022-07-15T08:31:30;15.20;99.90
22450;DHT22;11392;57.390;-2.468;2022-07-15T08:33:57;15.20;99.90
22450;DHT22;11392;57.390;-2.468;2022-07-15T08:36:24;15.30;99.90
22450;DHT22;11392;57.390;-2.468;2022-07-15T08:38:50;15.40;99.90
22450;DHT22;11392;57.390;-2.468;2022-07-15T08:41:18;15.50;99.90
22450;DHT22;11392;57.390;-2.468;2022-07-15T08:43:46;15.60;99.90
22450;DHT22;11392;57.390;-2.468;2022-07-15T08:46:14;15.70;99.90
22450;DHT22;11392;57.390;-2.468;2022-07-15T08:48:48;15.80;99.90
22450;DHT22;11392;57.390;-2.468;2022-07-15T08:51:21;15.70;99.90
22450;DHT22;11392;57.390;-2.468;2022-07-15T08:53:49;15.70;99.90
22450;DHT22;11392;57.390;-2.468;2022-07-15T08:56:18;15.80;99.90
22450;DHT22;11392;57.390;-2.468;2022-07-15T08:58:46;15.70;99.90
22450;DHT22;11392;57.390;-2.468;2022-07-15T09:01:25;15.60;99.90
22450;DHT22;11392;57.390;-2.468;2022-07-15T09:03:52;15.60;99.90
22450;DHT22;11392;57.390;-2.468;2022-07-15T09:06:39;15.60;99.90
22450;DHT22;11392;57.390;-2.468;2022-07-15T09:09:29;15.60;99.90
22450;DHT22;11392;57.390;-2.468;2022-07-15T09:12:10;15.60;99.90
22450;DHT22;11392;57.390;-2.468;2022-07-15T09:14:43;15.50;99.90
22450;DHT22;11392;57.390;-2.468;2022-07-15T09:20:00;15.40;99.90
22450;DHT22;11392;57.390;-2.468;2022-07-15T09:22:30;15.40;99.90
22450;DHT22;11392;57.390;-2.468;2022-07-15T09:25:09;15.40;99.90
22450;DHT22;11392;57.390;-2.468;2022-07-15T09:27:38;15.60;99.90
22450;DHT22;11392;57.390;-2.468;2022-07-15T09:30:23;15.90;99.90
22450;DHT22;11392;57.390;-2.468;2022-07-15T09:33:13;16.30;99.90
22450;DHT22;11392;57.390;-2.468;2022-07-15T09:41:09;17.00;99.90
22450;DHT22;11392;57.390;-2.468;2022-07-15T09:43:45;17.10;99.90
22450;DHT22;11392;57.390;-2.468;2022-07-15T09:46:13;17.40;99.90
22450;DHT22;11392;57.390;-2.468;2022-07-15T09:48:43;17.90;99.90
22450;DHT22;11392;57.390;-2.468;2022-07-15T09:51:11;17.90;99.90
22450;DHT22;11392;57.390;-2.468;2022-07-15T09:53:39;17.80;99.90
22450;DHT22;11392;57.390;-2.468;2022-07-15T09:56:09;17.40;99.90
22450;DHT22;11392;57.390;-2.468;2022-07-15T09:58:39;17.00;99.90
22450;DHT22;11392;57.390;-2.468;2022-07-15T10:01:09;16.60;99.90
22450;DHT22;11392;57.390;-2.468;2022-07-15T10:03:37;16.40;99.90
22450;DHT22;11392;57.390;-2.468;2022-07-15T10:06:05;16.40;99.90
22450;DHT22;11392;57.390;-2.468;2022-07-15T10:08:34;17.00;99.90
22450;DHT22;11392;57.390;-2.468;2022-07-15T10:11:07;18.00;99.90
22450;DHT22;11392;57.390;-2.468;2022-07-15T10:22:37;18.90;99.90
22450;DHT22;11392;57.390;-2.468;2022-07-15T10:30:22;19.30;99.90
22450;DHT22;11392;57.390;-2.468;2022-07-15T10:33:06;20.20;99.90
22450;DHT22;11392;57.390;-2.468;2022-07-15T10:35:41;20.50;99.90
22450;DHT22;11392;57.390;-2.468;2022-07-15T10:41:08;19.90;99.90
22450;DHT22;11392;57.390;-2.468;2022-07-15T10:43:52;20.00;99.90
22450;DHT22;11392;57.390;-2.468;2022-07-15T10:46:24;20.50;99.90
22450;DHT22;11392;57.390;-2.468;2022-07-15T10:54:09;21.40;99.90
22450;DHT22;11392;57.390;-2.468;2022-07-15T10:56:45;21.10;99.90
22450;DHT22;11392;57.390;-2.468;2022-07-15T10:59:20;20.90;99.90
22450;DHT22;11392;57.390;-2.468;2022-07-15T11:02:11;20.60;99.90
22450;DHT22;11392;57.390;-2.468;2022-07-15T11:04:39;19.90;99.90
22450;DHT22;11392;57.390;-2.468;2022-07-15T11:12:18;19.10;99.90
22450;DHT22;11392;57.390;-2.468;2022-07-15T11:14:50;19.10;99.90
22450;DHT22;11392;57.390;-2.468;2022-07-15T11:17:25;19.10;99.90
22450;DHT22;11392;57.390;-2.468;2022-07-15T11:20:09;19.90;99.90
22450;DHT22;11392;57.390;-2.468;2022-07-15T11:22:41;20.60;99.90
22450;DHT22;11392;57.390;-2.468;2022-07-15T11:28:11;20.70;99.90
22450;DHT22;11392;57.390;-2.468;2022-07-15T11:33:16;21.90;99.90
22450;DHT22;11392;57.390;-2.468;2022-07-15T11:35:47;22.50;99.90
22450;DHT22;11392;57.390;-2.468;2022-07-15T11:38:15;22.80;99.90
22450;DHT22;11392;57.390;-2.468;2022-07-15T11:40:45;23.00;99.90
22450;DHT22;11392;57.390;-2.468;2022-07-15T11:43:31;23.20;99.90
22450;DHT22;11392;57.390;-2.468;2022-07-15T11:46:18;23.80;99.90
22450;DHT22;11392;57.390;-2.468;2022-07-15T11:48:45;23.60;99.90
22450;DHT22;11392;57.390;-2.468;2022-07-15T11:51:12;23.30;99.90
22450;DHT22;11392;57.390;-2.468;2022-07-15T11:53:45;22.90;99.90
22450;DHT22;11392;57.390;-2.468;2022-07-15T11:56:13;22.30;99.90
22450;DHT22;11392;57.390;-2.468;2022-07-15T11:58:45;22.50;99.90
22450;DHT22;11392;57.390;-2.468;2022-07-15T12:01:24;22.90;99.90
22450;DHT22;11392;57.390;-2.468;2022-07-15T12:03:53;23.30;99.90
22450;DHT22;11392;57.390;-2.468;2022-07-15T12:06:29;23.70;99.90
22450;DHT22;11392;57.390;-2.468;2022-07-15T12:08:59;23.50;99.90
22450;DHT22;11392;57.390;-2.468;2022-07-15T12:11:28;23.10;99.90
22450;DHT22;11392;57.390;-2.468;2022-07-15T12:13:59;22.20;99.90
22450;DHT22;11392;57.390;-2.468;2022-07-15T12:19:08;22.00;99.90
22450;DHT22;11392;57.390;-2.468;2022-07-15T12:21:36;22.10;99.90
22450;DHT22;11392;57.390;-2.468;2022-07-15T12:32:02;23.50;99.90
22450;DHT22;11392;57.390;-2.468;2022-07-15T12:35:00;24.00;99.90
22450;DHT22;11392;57.390;-2.468;2022-07-15T12:37:48;24.10;99.90
22450;DHT22;11392;57.390;-2.468;2022-07-15T12:40:23;23.70;99.90
22450;DHT22;11392;57.390;-2.468;2022-07-15T12:42:51;24.00;99.90
22450;DHT22;11392;57.390;-2.468;2022-07-15T12:45:21;24.30;99.90
22450;DHT22;11392;57.390;-2.468;2022-07-15T12:50:46;24.80;99.90
22450;DHT22;11392;57.390;-2.468;2022-07-15T12:53:24;24.50;99.90
22450;DHT22;11392;57.390;-2.468;2022-07-15T12:55:53;24.70;99.90
22450;DHT22;11392;57.390;-2.468;2022-07-15T12:58:28;24.90;99.90
22450;DHT22;11392;57.390;-2.468;2022-07-15T13:01:12;25.10;99.90
22450;DHT22;11392;57.390;-2.468;2022-07-15T13:03:41;25.10;99.90
22450;DHT22;11392;57.390;-2.468;2022-07-15T13:06:09;25.20;99.90
22450;DHT22;11392;57.390;-2.468;2022-07-15T13:08:39;25.20;99.90
22450;DHT22;11392;57.390;-2.468;2022-07-15T13:11:07;24.70;99.90
22450;DHT22;11392;57.390;-2.468;2022-07-15T13:13:38;24.70;99.90
22450;DHT22;11392;57.390;-2.468;2022-07-15T13:16:06;24.70;99.90
22450;DHT22;11392;57.390;-2.468;2022-07-15T13:18:35;23.90;99.90
22450;DHT22;11392;57.390;-2.468;2022-07-15T13:21:02;24.00;99.90
22450;DHT22;11392;57.390;-2.468;2022-07-15T13:23:29;24.40;99.90
22450;DHT22;11392;57.390;-2.468;2022-07-15T13:25:56;23.90;99.90
22450;DHT22;11392;57.390;-2.468;2022-07-15T13:28:24;23.60;99.90
22450;DHT22;11392;57.390;-2.468;2022-07-15T13:30:52;23.80;99.90
22450;DHT22;11392;57.390;-2.468;2022-07-15T13:33:19;24.20;99.90
22450;DHT22;11392;57.390;-2.468;2022-07-15T13:35:46;24.20;99.90
22450;DHT22;11392;57.390;-2.468;2022-07-15T13:38:13;24.50;99.90
22450;DHT22;11392;57.390;-2.468;2022-07-15T13:40:42;24.60;99.90
22450;DHT22;11392;57.390;-2.468;2022-07-15T13:43:09;24.50;99.90
22450;DHT22;11392;57.390;-2.468;2022-07-15T13:45:36;24.20;99.90
22450;DHT22;11392;57.390;-2.468;2022-07-15T13:48:11;23.70;99.90
22450;DHT22;11392;57.390;-2.468;2022-07-15T13:50:38;23.70;99.90
22450;DHT22;11392;57.390;-2.468;2022-07-15T13:53:24;22.90;99.90
22450;DHT22;11392;57.390;-2.468;2022-07-15T13:55:51;22.40;99.90
22450;DHT22;11392;57.390;-2.468;2022-07-15T13:58:18;21.90;99.90
22450;DHT22;11392;57.390;-2.468;2022-07-15T14:00:45;21.60;99.90
22450;DHT22;11392;57.390;-2.468;2022-07-15T14:03:12;21.20;99.90
22450;DHT22;11392;57.390;-2.468;2022-07-15T14:05:40;20.90;99.90
22450;DHT22;11392;57.390;-2.468;2022-07-15T14:08:07;20.60;99.90
22450;DHT22;11392;57.390;-2.468;2022-07-15T14:10:34;20.60;99.90
22450;DHT22;11392;57.390;-2.468;2022-07-15T14:13:01;20.80;99.90
22450;DHT22;11392;57.390;-2.468;2022-07-15T14:15:28;21.10;99.90
22450;DHT22;11392;57.390;-2.468;2022-07-15T14:18:03;21.40;99.90
22450;DHT22;11392;57.390;-2.468;2022-07-15T14:20:30;21.80;99.90
22450;DHT22;11392;57.390;-2.468;2022-07-15T14:22:58;22.40;99.90
22450;DHT22;11392;57.390;-2.468;2022-07-15T14:25:25;23.00;99.90
22450;DHT22;11392;57.390;-2.468;2022-07-15T14:27:52;23.30;99.90
22450;DHT22;11392;57.390;-2.468;2022-07-15T14:30:21;23.80;99.90
22450;DHT22;11392;57.390;-2.468;2022-07-15T14:32:49;24.10;99.90
22450;DHT22;11392;57.390;-2.468;2022-07-15T14:35:19;24.50;99.90
22450;DHT22;11392;57.390;-2.468;2022-07-15T14:37:48;24.20;99.90
22450;DHT22;11392;57.390;-2.468;2022-07-15T14:40:16;23.70;99.90
22450;DHT22;11392;57.390;-2.468;2022-07-15T14:42:43;23.20;99.90
22450;DHT22;11392;57.390;-2.468;2022-07-15T14:45:10;22.80;99.90
22450;DHT22;11392;57.390;-2.468;2022-07-15T14:47:37;22.20;99.90
22450;DHT22;11392;57.390;-2.468;2022-07-15T14:50:05;22.10;99.90
22450;DHT22;11392;57.390;-2.468;2022-07-15T14:52:32;21.70;99.90
22450;DHT22;11392;57.390;-2.468;2022-07-15T14:54:59;21.60;99.90
22450;DHT22;11392;57.390;-2.468;2022-07-15T14:57:26;21.30;99.90
22450;DHT22;11392;57.390;-2.468;2022-07-15T14:59:53;21.20;99.90
22450;DHT22;11392;57.390;-2.468;2022-07-15T15:02:20;21.30;99.90
22450;DHT22;11392;57.390;-2.468;2022-07-15T15:04:49;21.40;99.90
22450;DHT22;11392;57.390;-2.468;2022-07-15T15:07:16;21.70;99.90
22450;DHT22;11392;57.390;-2.468;2022-07-15T15:09:43;21.80;99.90
22450;DHT22;11392;57.390;-2.468;2022-07-15T15:12:10;21.80;99.90
22450;DHT22;11392;57.390;-2.468;2022-07-15T15:14:37;21.70;99.90
22450;DHT22;11392;57.390;-2.468;2022-07-15T15:17:04;21.60;99.90
22450;DHT22;11392;57.390;-2.468;2022-07-15T15:19:36;21.30;99.90
22450;DHT22;11392;57.390;-2.468;2022-07-15T15:22:04;21.40;99.90
22450;DHT22;11392;57.390;-2.468;2022-07-15T15:24:32;22.00;99.90
22450;DHT22;11392;57.390;-2.468;2022-07-15T15:26:59;22.20;99.90
22450;DHT22;11392;57.390;-2.468;2022-07-15T15:29:28;22.00;99.90
22450;DHT22;11392;57.390;-2.468;2022-07-15T15:31:56;21.50;99.90
22450;DHT22;11392;57.390;-2.468;2022-07-15T15:34:23;22.10;99.90
22450;DHT22;11392;57.390;-2.468;2022-07-15T15:36:50;22.60;99.90
22450;DHT22;11392;57.390;-2.468;2022-07-15T15:39:17;23.00;99.90
22450;DHT22;11392;57.390;-2.468;2022-07-15T15:41:44;23.00;99.90
22450;DHT22;11392;57.390;-2.468;2022-07-15T15:44:11;22.90;99.90
22450;DHT22;11392;57.390;-2.468;2022-07-15T15:46:40;23.00;99.90
22450;DHT22;11392;57.390;-2.468;2022-07-15T15:49:07;22.40;99.90
22450;DHT22;11392;57.390;-2.468;2022-07-15T15:51:34;21.60;99.90
22450;DHT22;11392;57.390;-2.468;2022-07-15T15:54:01;21.20;99.90
22450;DHT22;11392;57.390;-2.468;2022-07-15T15:56:28;21.20;99.90
22450;DHT22;11392;57.390;-2.468;2022-07-15T15:58:55;20.90;99.90
22450;DHT22;11392;57.390;-2.468;2022-07-15T16:01:22;20.60;99.90
22450;DHT22;11392;57.390;-2.468;2022-07-15T16:03:49;20.30;99.90
22450;DHT22;11392;57.390;-2.468;2022-07-15T16:06:17;20.00;99.90
22450;DHT22;11392;57.390;-2.468;2022-07-15T16:08:52;19.70;99.90
22450;DHT22;11392;57.390;-2.468;2022-07-15T16:11:20;19.50;99.90
22450;DHT22;11392;57.390;-2.468;2022-07-15T16:13:48;19.60;99.90
22450;DHT22;11392;57.390;-2.468;2022-07-15T16:16:16;19.60;99.90
22450;DHT22;11392;57.390;-2.468;2022-07-15T16:18:44;19.40;99.90
22450;DHT22;11392;57.390;-2.468;2022-07-15T16:21:11;19.40;99.90